sensor_id;sensor_type;location;lat;lon;timestamp;temperature;humidity
4354;DHT22;11018;51.258;6.806;2022-07-22T00:01:28;16.80;99.90
4354;DHT22;11018;51.258;6.806;2022-07-22T00:03:54;16.80;99.90
4354;DHT22;11018;51.258;6.806;2022-07-22T00:06:19;16.80;99.90
4354;DHT22;11018;51.258;6.806;2022-07-22T00:08:45;16.70;99.90
4354;DHT22;11018;51.258;6.806;2022-07-22T00:11:10;16.60;99.90
4354;DHT22;11018;51.258;6.806;2022-07-22T00:13:36;16.60;99.90
4354;DHT22;11018;51.258;6.806;2022-07-22T00:16:02;16.60;99.90
4354;DHT22;11018;51.258;6.806;2022-07-22T00:18:27;16.60;99.90
4354;DHT22;11018;51.258;6.806;2022-07-22T00:20:54;16.60;99.90
4354;DHT22;11018;51.258;6.806;2022-07-22T00:23:19;16.60;99.90
4354;DHT22;11018;51.258;6.806;2022-07-22T00:25:45;16.60;99.90
4354;DHT22;11018;51.258;6.806;2022-07-22T00:28:10;16.60;99.90
4354;DHT22;11018;51.258;6.806;2022-07-22T00:30:36;16.60;99.90
4354;DHT22;11018;51.258;6.806;2022-07-22T00:33:02;16.50;99.90
4354;DHT22;11018;51.258;6.806;2022-07-22T00:35:28;16.60;99.90
4354;DHT22;11018;51.258;6.806;2022-07-22T00:37:53;16.60;99.90
4354;DHT22;11018;51.258;6.806;2022-07-22T00:40:19;16.70;99.90
4354;DHT22;11018;51.258;6.806;2022-07-22T00:42:44;16.60;99.90
4354;DHT22;11018;51.258;6.806;2022-07-22T00:45:10;16.50;99.90
4354;DHT22;11018;51.258;6.806;2022-07-22T00:47:36;16.40;99.90
4354;DHT22;11018;51.258;6.806;2022-07-22T00:50:03;16.40;99.90
4354;DHT22;11018;51.258;6.806;2022-07-22T00:52:31;16.40;99.90
4354;DHT22;11018;51.258;6.806;2022-07-22T00:54:58;16.40;99.90
4354;DHT22;11018;51.258;6.806;2022-07-22T00:57:24;16.40;99.90
4354;DHT22;11018;51.258;6.806;2022-07-22T00:59:49;16.40;99.90
4354;DHT22;11018;51.258;6.806;2022-07-22T01:02:15;16.50;99.90
4354;DHT22;11018;51.258;6.806;2022-07-22T01:04:40;16.50;99.90
4354;DHT22;11018;51.258;6.806;2022-07-22T01:07:06;16.40;99.90
4354;DHT22;11018;51.258;6.806;2022-07-22T01:09:32;16.40;99.90
4354;DHT22;11018;51.258;6.806;2022-07-22T01:11:58;16.40;99.90
4354;DHT22;11018;51.258;6.806;2022-07-22T01:14:23;16.40;99.90
4354;DHT22;11018;51.258;6.806;2022-07-22T01:16:49;16.50;99.90
4354;DHT22;11018;51.258;6.806;2022-07-22T01:19:15;16.40;99.90
4354;DHT22;11018;51.258;6.806;2022-07-22T01:21:40;16.40;99.90
4354;DHT22;11018;51.258;6.806;2022-07-22T01:24:06;16.40;99.90
4354;DHT22;11018;51.258;6.806;2022-07-22T01:26:32;16.50;99.90
4354;DHT22;11018;51.258;6.806;2022-07-22T01:28:59;16.50;99.90
4354;DHT22;11018;51.258;6.806;2022-07-22T01:31:24;16.50;99.90
4354;DHT22;11018;51.258;6.806;2022-07-22T01:33:50;16.50;99.90
4354;DHT22;11018;51.258;6.806;2022-07-22T01:36:15;16.60;99.90
4354;DHT22;11018;51.258;6.806;2022-07-22T01:38:41;16.60;99.90
4354;DHT22;11018;51.258;6.806;2022-07-22T01:41:06;16.60;99.90
4354;DHT22;11018;51.258;6.806;2022-07-22T01:43:32;16.60;99.90
4354;DHT22;11018;51.258;6.806;2022-07-22T01:45:58;16.60;99.90
4354;DHT22;11018;51.258;6.806;2022-07-22T01:48:24;16.70;99.90
4354;DHT22;11018;51.258;6.806;2022-07-22T01:50:50;16.70;99.90
4354;DHT22;11018;51.258;6.806;2022-07-22T01:53:16;16.60;99.90
4354;DHT22;11018;51.258;6.806;2022-07-22T01:55:42;16.60;99.90
4354;DHT22;11018;51.258;6.806;2022-07-22T01:58:08;16.70;99.90
4354;DHT22;11018;51.258;6.806;2022-07-22T02:00:34;16.60;99.90
4354;DHT22;11018;51.258;6.806;2022-07-22T02:03:00;16.60;99.90
4354;DHT22;11018;51.258;6.806;2022-07-22T02:05:26;16.70;99.90
4354;DHT22;11018;51.258;6.806;2022-07-22T02:07:51;16.70;99.90
4354;DHT22;11018;51.258;6.806;2022-07-22T02:10:17;16.60;99.90
4354;DHT22;11018;51.258;6.806;2022-07-22T02:12:43;16.60;99.90
4354;DHT22;11018;51.258;6.806;2022-07-22T02:15:09;16.70;99.90
4354;DHT22;11018;51.258;6.806;2022-07-22T02:17:37;16.60;99.90
4354;DHT22;11018;51.258;6.806;2022-07-22T02:20:03;16.70;99.90
4354;DHT22;11018;51.258;6.806;2022-07-22T02:22:29;16.70;99.90
4354;DHT22;11018;51.258;6.806;2022-07-22T02:24:55;16.70;99.90
4354;DHT22;11018;51.258;6.806;2022-07-22T02:27:20;16.70;99.90
4354;DHT22;11018;51.258;6.806;2022-07-22T02:29:46;16.70;99.90
4354;DHT22;11018;51.258;6.806;2022-07-22T02:32:12;16.70;99.90
4354;DHT22;11018;51.258;6.806;2022-07-22T02:34:37;16.70;99.90
4354;DHT22;11018;51.258;6.806;2022-07-22T02:37:03;16.70;99.90
4354;DHT22;11018;51.258;6.806;2022-07-22T02:39:28;16.60;99.90
4354;DHT22;11018;51.258;6.806;2022-07-22T02:41:54;16.60;99.90
4354;DHT22;11018;51.258;6.806;2022-07-22T02:44:20;16.50;99.90
4354;DHT22;11018;51.258;6.806;2022-07-22T02:46:45;16.50;99.90
4354;DHT22;11018;51.258;6.806;2022-07-22T02:49:11;16.50;99.90
4354;DHT22;11018;51.258;6.806;2022-07-22T02:51:37;16.50;99.90
4354;DHT22;11018;51.258;6.806;2022-07-22T02:54:03;16.50;99.90
4354;DHT22;11018;51.258;6.806;2022-07-22T02:56:28;16.50;99.90
4354;DHT22;11018;51.258;6.806;2022-07-22T02:58:54;16.50;99.90
4354;DHT22;11018;51.258;6.806;2022-07-22T03:01:20;16.50;99.90
4354;DHT22;11018;51.258;6.806;2022-07-22T03:03:45;16.50;99.90
4354;DHT22;11018;51.258;6.806;2022-07-22T03:06:11;16.50;99.90
4354;DHT22;11018;51.258;6.806;2022-07-22T03:08:37;16.50;99.90
4354;DHT22;11018;51.258;6.806;2022-07-22T03:11:03;16.40;99.90
4354;DHT22;11018;51.258;6.806;2022-07-22T03:13:29;16.40;99.90
4354;DHT22;11018;51.258;6.806;2022-07-22T03:15:55;16.30;99.90
4354;DHT22;11018;51.258;6.806;2022-07-22T03:18:20;16.40;99.90
4354;DHT22;11018;51.258;6.806;2022-07-22T03:20:46;16.40;99.90
4354;DHT22;11018;51.258;6.806;2022-07-22T03:23:12;16.40;99.90
4354;DHT22;11018;51.258;6.806;2022-07-22T03:25:37;16.30;99.90
4354;DHT22;11018;51.258;6.806;2022-07-22T03:28:04;16.40;99.90
4354;DHT22;11018;51.258;6.806;2022-07-22T03:30:30;16.30;99.90
4354;DHT22;11018;51.258;6.806;2022-07-22T03:32:55;16.40;99.90
4354;DHT22;11018;51.258;6.806;2022-07-22T03:35:21;16.30;99.90
4354;DHT22;11018;51.258;6.806;2022-07-22T03:37:46;16.40;99.90
4354;DHT22;11018;51.258;6.806;2022-07-22T03:40:12;16.40;99.90
4354;DHT22;11018;51.258;6.806;2022-07-22T03:42:38;16.50;99.90
4354;DHT22;11018;51.258;6.806;2022-07-22T03:45:03;16.40;99.90
4354;DHT22;11018;51.258;6.806;2022-07-22T03:47:29;16.50;99.90
4354;DHT22;11018;51.258;6.806;2022-07-22T03:49:55;16.40;99.90
4354;DHT22;11018;51.258;6.806;2022-07-22T03:52:22;16.50;99.90
4354;DHT22;11018;51.258;6.806;2022-07-22T03:54:47;16.50;99.90
4354;DHT22;11018;51.258;6.806;2022-07-22T03:57:13;16.50;99.90
4354;DHT22;11018;51.258;6.806;2022-07-22T03:59:38;16.50;99.90
4354;DHT22;11018;51.258;6.806;2022-07-22T04:02:04;16.50;99.90
4354;DHT22;11018;51.258;6.806;2022-07-22T04:04:30;16.50;99.90
4354;DHT22;11018;51.258;6.806;2022-07-22T04:06:56;16.50;99.90
4354;DHT22;11018;51.258;6.806;2022-07-22T04:09:21;16.50;99.90
4354;DHT22;11018;51.258;6.806;2022-07-22T04:11:47;16.60;99.90
4354;DHT22;11018;51.258;6.806;2022-07-22T04:14:13;16.60;99.90
4354;DHT22;11018;51.258;6.806;2022-07-22T04:16:38;16.60;99.90
4354;DHT22;11018;51.258;6.806;2022-07-22T04:19:04;16.60;99.90
4354;DHT22;11018;51.258;6.806;2022-07-22T04:21:30;16.60;99.90
4354;DHT22;11018;51.258;6.806;2022-07-22T04:23:56;16.70;99.90
4354;DHT22;11018;51.258;6.806;2022-07-22T04:26:21;16.60;99.90
4354;DHT22;11018;51.258;6.806;2022-07-22T04:28:47;16.70;99.90
4354;DHT22;11018;51.258;6.806;2022-07-22T04:31:13;16.70;99.90
4354;DHT22;11018;51.258;6.806;2022-07-22T04:33:39;16.80;99.90
4354;DHT22;11018;51.258;6.806;2022-07-22T04:36:04;16.80;99.90
4354;DHT22;11018;51.258;6.806;2022-07-22T04:38:30;16.70;99.90
4354;DHT22;11018;51.258;6.806;2022-07-22T04:40:56;16.70;99.90
4354;DHT22;11018;51.258;6.806;2022-07-22T04:43:30;16.80;99.90
4354;DHT22;11018;51.258;6.806;2022-07-22T04:45:56;16.90;99.90
4354;DHT22;11018;51.258;6.806;2022-07-22T04:48:21;17.00;99.70
4354;DHT22;11018;51.258;6.806;2022-07-22T04:50:47;17.00;99.90
4354;DHT22;11018;51.258;6.806;2022-07-22T04:53:12;17.00;99.90
4354;DHT22;11018;51.258;6.806;2022-07-22T04:55:38;17.00;99.90
4354;DHT22;11018;51.258;6.806;2022-07-22T04:58:04;17.00;99.90
4354;DHT22;11018;51.258;6.806;2022-07-22T05:00:29;17.10;95.40
4354;DHT22;11018;51.258;6.806;2022-07-22T05:02:55;17.10;97.10
4354;DHT22;11018;51.258;6.806;2022-07-22T05:05:21;17.10;99.90
4354;DHT22;11018;51.258;6.806;2022-07-22T05:07:47;17.20;93.70
4354;DHT22;11018;51.258;6.806;2022-07-22T05:10:13;17.20;94.60
4354;DHT22;11018;51.258;6.806;2022-07-22T05:12:39;17.10;96.70
4354;DHT22;11018;51.258;6.806;2022-07-22T05:15:04;17.10;99.90
4354;DHT22;11018;51.258;6.806;2022-07-22T05:17:30;17.20;97.30
4354;DHT22;11018;51.258;6.806;2022-07-22T05:19:56;17.20;98.00
4354;DHT22;11018;51.258;6.806;2022-07-22T05:22:22;17.40;96.30
4354;DHT22;11018;51.258;6.806;2022-07-22T05:24:47;17.40;96.40
4354;DHT22;11018;51.258;6.806;2022-07-22T05:27:13;17.60;84.30
4354;DHT22;11018;51.258;6.806;2022-07-22T05:29:38;17.70;83.90
4354;DHT22;11018;51.258;6.806;2022-07-22T05:32:04;17.70;84.60
4354;DHT22;11018;51.258;6.806;2022-07-22T05:34:30;17.80;85.30
4354;DHT22;11018;51.258;6.806;2022-07-22T05:36:55;17.80;84.20
4354;DHT22;11018;51.258;6.806;2022-07-22T05:39:21;17.70;88.70
4354;DHT22;11018;51.258;6.806;2022-07-22T05:41:47;17.70;90.40
4354;DHT22;11018;51.258;6.806;2022-07-22T05:44:13;17.70;89.20
4354;DHT22;11018;51.258;6.806;2022-07-22T05:46:38;17.80;83.00
4354;DHT22;11018;51.258;6.806;2022-07-22T05:49:04;17.80;82.20
4354;DHT22;11018;51.258;6.806;2022-07-22T05:51:30;17.80;84.10
4354;DHT22;11018;51.258;6.806;2022-07-22T05:53:55;17.90;83.50
4354;DHT22;11018;51.258;6.806;2022-07-22T05:56:21;18.00;80.20
4354;DHT22;11018;51.258;6.806;2022-07-22T05:58:46;18.00;79.40
4354;DHT22;11018;51.258;6.806;2022-07-22T06:01:12;17.90;81.30
4354;DHT22;11018;51.258;6.806;2022-07-22T06:03:38;18.00;80.90
4354;DHT22;11018;51.258;6.806;2022-07-22T06:06:04;18.00;82.80
4354;DHT22;11018;51.258;6.806;2022-07-22T06:08:31;18.00;81.10
4354;DHT22;11018;51.258;6.806;2022-07-22T06:10:57;18.10;77.70
4354;DHT22;11018;51.258;6.806;2022-07-22T06:13:23;18.10;74.30
4354;DHT22;11018;51.258;6.806;2022-07-22T06:15:49;18.00;76.30
4354;DHT22;11018;51.258;6.806;2022-07-22T06:18:14;18.00;80.50
4354;DHT22;11018;51.258;6.806;2022-07-22T06:20:40;18.00;81.00
4354;DHT22;11018;51.258;6.806;2022-07-22T06:23:06;18.10;79.10
4354;DHT22;11018;51.258;6.806;2022-07-22T06:25:31;18.30;73.00
4354;DHT22;11018;51.258;6.806;2022-07-22T06:27:57;18.40;71.30
4354;DHT22;11018;51.258;6.806;2022-07-22T06:30:23;18.40;72.90
4354;DHT22;11018;51.258;6.806;2022-07-22T06:32:48;18.20;72.70
4354;DHT22;11018;51.258;6.806;2022-07-22T06:35:14;18.10;77.10
4354;DHT22;11018;51.258;6.806;2022-07-22T06:37:39;18.30;70.10
4354;DHT22;11018;51.258;6.806;2022-07-22T06:40:06;18.60;65.80
4354;DHT22;11018;51.258;6.806;2022-07-22T06:42:31;18.70;66.40
4354;DHT22;11018;51.258;6.806;2022-07-22T06:44:57;18.70;68.10
4354;DHT22;11018;51.258;6.806;2022-07-22T06:47:22;18.70;71.10
4354;DHT22;11018;51.258;6.806;2022-07-22T06:49:48;18.80;67.90
4354;DHT22;11018;51.258;6.806;2022-07-22T06:52:14;19.10;63.20
4354;DHT22;11018;51.258;6.806;2022-07-22T06:54:39;19.10;66.00
4354;DHT22;11018;51.258;6.806;2022-07-22T06:57:05;19.10;66.70
4354;DHT22;11018;51.258;6.806;2022-07-22T06:59:30;19.20;63.00
4354;DHT22;11018;51.258;6.806;2022-07-22T07:01:56;19.20;58.50
4354;DHT22;11018;51.258;6.806;2022-07-22T07:04:24;19.20;59.40
4354;DHT22;11018;51.258;6.806;2022-07-22T07:06:50;19.10;64.40
4354;DHT22;11018;51.258;6.806;2022-07-22T07:09:15;19.10;67.90
4354;DHT22;11018;51.258;6.806;2022-07-22T07:11:41;19.10;68.70
4354;DHT22;11018;51.258;6.806;2022-07-22T07:14:07;19.20;68.20
4354;DHT22;11018;51.258;6.806;2022-07-22T07:16:32;19.20;70.00
4354;DHT22;11018;51.258;6.806;2022-07-22T07:18:58;19.20;66.90
4354;DHT22;11018;51.258;6.806;2022-07-22T07:21:23;19.30;65.70
4354;DHT22;11018;51.258;6.806;2022-07-22T07:23:49;19.40;65.20
4354;DHT22;11018;51.258;6.806;2022-07-22T07:26:14;19.40;63.90
4354;DHT22;11018;51.258;6.806;2022-07-22T07:28:40;19.40;65.20
4354;DHT22;11018;51.258;6.806;2022-07-22T07:31:06;19.30;62.60
4354;DHT22;11018;51.258;6.806;2022-07-22T07:33:31;19.40;65.50
4354;DHT22;11018;51.258;6.806;2022-07-22T07:35:57;19.40;64.50
4354;DHT22;11018;51.258;6.806;2022-07-22T07:38:22;19.50;60.30
4354;DHT22;11018;51.258;6.806;2022-07-22T07:40:48;19.60;59.70
4354;DHT22;11018;51.258;6.806;2022-07-22T07:43:13;19.80;58.10
4354;DHT22;11018;51.258;6.806;2022-07-22T07:45:39;19.60;58.50
4354;DHT22;11018;51.258;6.806;2022-07-22T07:48:05;19.60;57.70
4354;DHT22;11018;51.258;6.806;2022-07-22T07:50:31;19.60;57.80
4354;DHT22;11018;51.258;6.806;2022-07-22T07:52:57;19.70;55.90
4354;DHT22;11018;51.258;6.806;2022-07-22T07:55:23;19.60;57.90
4354;DHT22;11018;51.258;6.806;2022-07-22T07:57:49;19.60;58.40
4354;DHT22;11018;51.258;6.806;2022-07-22T08:00:16;19.50;60.20
4354;DHT22;11018;51.258;6.806;2022-07-22T08:02:43;19.60;55.90
4354;DHT22;11018;51.258;6.806;2022-07-22T08:05:09;19.70;56.30
4354;DHT22;11018;51.258;6.806;2022-07-22T08:07:35;19.90;55.50
4354;DHT22;11018;51.258;6.806;2022-07-22T08:10:01;20.10;49.90
4354;DHT22;11018;51.258;6.806;2022-07-22T08:12:27;20.40;46.00
4354;DHT22;11018;51.258;6.806;2022-07-22T08:14:53;20.40;46.90
4354;DHT22;11018;51.258;6.806;2022-07-22T08:17:18;20.40;47.80
4354;DHT22;11018;51.258;6.806;2022-07-22T08:19:44;20.40;47.90
4354;DHT22;11018;51.258;6.806;2022-07-22T08:22:12;20.30;45.00
4354;DHT22;11018;51.258;6.806;2022-07-22T08:24:38;20.40;45.40
4354;DHT22;11018;51.258;6.806;2022-07-22T08:27:03;20.50;43.70
4354;DHT22;11018;51.258;6.806;2022-07-22T08:29:29;20.70;42.30
4354;DHT22;11018;51.258;6.806;2022-07-22T08:31:55;20.80;42.70
4354;DHT22;11018;51.258;6.806;2022-07-22T08:34:20;21.00;42.40
4354;DHT22;11018;51.258;6.806;2022-07-22T08:36:46;20.90;43.10
4354;DHT22;11018;51.258;6.806;2022-07-22T08:39:11;20.90;43.70
4354;DHT22;11018;51.258;6.806;2022-07-22T08:41:38;20.80;45.10
4354;DHT22;11018;51.258;6.806;2022-07-22T08:44:06;20.80;43.10
4354;DHT22;11018;51.258;6.806;2022-07-22T08:46:32;20.60;44.00
4354;DHT22;11018;51.258;6.806;2022-07-22T08:48:59;20.60;42.50
4354;DHT22;11018;51.258;6.806;2022-07-22T08:51:27;20.70;42.30
4354;DHT22;11018;51.258;6.806;2022-07-22T08:53:54;20.60;42.50
4354;DHT22;11018;51.258;6.806;2022-07-22T08:56:20;20.50;42.40
4354;DHT22;11018;51.258;6.806;2022-07-22T08:58:45;20.50;42.00
4354;DHT22;11018;51.258;6.806;2022-07-22T09:01:14;20.60;40.40
4354;DHT22;11018;51.258;6.806;2022-07-22T09:03:51;20.70;37.10
4354;DHT22;11018;51.258;6.806;2022-07-22T09:06:19;20.70;37.40
4354;DHT22;11018;51.258;6.806;2022-07-22T09:08:52;20.60;37.90
4354;DHT22;11018;51.258;6.806;2022-07-22T09:11:20;20.50;39.90
4354;DHT22;11018;51.258;6.806;2022-07-22T09:13:46;20.70;37.00
4354;DHT22;11018;51.258;6.806;2022-07-22T09:16:11;20.60;39.30
4354;DHT22;11018;51.258;6.806;2022-07-22T09:18:51;20.60;38.70
4354;DHT22;11018;51.258;6.806;2022-07-22T09:21:17;20.50;41.40
4354;DHT22;11018;51.258;6.806;2022-07-22T09:23:43;20.60;39.20
4354;DHT22;11018;51.258;6.806;2022-07-22T09:26:28;20.70;39.10
4354;DHT22;11018;51.258;6.806;2022-07-22T09:28:56;20.60;38.30
4354;DHT22;11018;51.258;6.806;2022-07-22T09:31:36;20.50;40.80
4354;DHT22;11018;51.258;6.806;2022-07-22T09:34:04;20.60;41.20
4354;DHT22;11018;51.258;6.806;2022-07-22T09:36:30;20.60;41.20
4354;DHT22;11018;51.258;6.806;2022-07-22T09:38:56;20.70;41.70
4354;DHT22;11018;51.258;6.806;2022-07-22T09:41:22;20.80;40.20
4354;DHT22;11018;51.258;6.806;2022-07-22T09:43:48;20.90;39.20
4354;DHT22;11018;51.258;6.806;2022-07-22T09:46:15;21.00;38.60
4354;DHT22;11018;51.258;6.806;2022-07-22T09:48:41;21.10;38.40
4354;DHT22;11018;51.258;6.806;2022-07-22T09:51:08;21.10;37.90
4354;DHT22;11018;51.258;6.806;2022-07-22T09:53:34;21.30;36.40
4354;DHT22;11018;51.258;6.806;2022-07-22T09:56:02;21.30;38.10
4354;DHT22;11018;51.258;6.806;2022-07-22T09:58:28;21.30;36.80
4354;DHT22;11018;51.258;6.806;2022-07-22T10:00:57;21.40;37.80
4354;DHT22;11018;51.258;6.806;2022-07-22T10:03:31;21.50;35.30
4354;DHT22;11018;51.258;6.806;2022-07-22T10:05:58;21.80;32.80
4354;DHT22;11018;51.258;6.806;2022-07-22T10:08:28;22.00;31.80
4354;DHT22;11018;51.258;6.806;2022-07-22T10:11:00;22.20;30.50
4354;DHT22;11018;51.258;6.806;2022-07-22T10:13:26;22.50;31.10
4354;DHT22;11018;51.258;6.806;2022-07-22T10:15:53;22.60;30.50
4354;DHT22;11018;51.258;6.806;2022-07-22T10:18:20;22.90;28.90
4354;DHT22;11018;51.258;6.806;2022-07-22T10:20:46;23.30;29.30
4354;DHT22;11018;51.258;6.806;2022-07-22T10:23:13;23.60;28.80
4354;DHT22;11018;51.258;6.806;2022-07-22T10:25:54;23.90;26.00
4354;DHT22;11018;51.258;6.806;2022-07-22T10:30:48;24.50;22.40
4354;DHT22;11018;51.258;6.806;2022-07-22T10:33:21;24.30;23.70
4354;DHT22;11018;51.258;6.806;2022-07-22T10:35:57;24.40;22.00
4354;DHT22;11018;51.258;6.806;2022-07-22T10:38:24;24.30;22.00
4354;DHT22;11018;51.258;6.806;2022-07-22T10:40:53;24.10;23.30
4354;DHT22;11018;51.258;6.806;2022-07-22T10:43:31;24.00;23.60
4354;DHT22;11018;51.258;6.806;2022-07-22T10:45:58;24.30;22.30
4354;DHT22;11018;51.258;6.806;2022-07-22T10:48:45;24.40;21.60
4354;DHT22;11018;51.258;6.806;2022-07-22T10:51:19;24.50;23.00
4354;DHT22;11018;51.258;6.806;2022-07-22T10:56:28;24.40;23.00
4354;DHT22;11018;51.258;6.806;2022-07-22T11:01:23;24.20;24.70
4354;DHT22;11018;51.258;6.806;2022-07-22T11:03:50;24.30;22.70
4354;DHT22;11018;51.258;6.806;2022-07-22T11:06:24;24.20;22.90
4354;DHT22;11018;51.258;6.806;2022-07-22T11:09:00;24.20;22.80
4354;DHT22;11018;51.258;6.806;2022-07-22T11:11:39;24.30;23.70
4354;DHT22;11018;51.258;6.806;2022-07-22T11:16:38;24.30;21.90
4354;DHT22;11018;51.258;6.806;2022-07-22T11:19:04;24.80;20.30
4354;DHT22;11018;51.258;6.806;2022-07-22T11:21:32;24.90;20.60
4354;DHT22;11018;51.258;6.806;2022-07-22T11:24:01;25.10;18.70
4354;DHT22;11018;51.258;6.806;2022-07-22T11:26:45;25.20;18.90
4354;DHT22;11018;51.258;6.806;2022-07-22T11:29:28;25.40;18.80
4354;DHT22;11018;51.258;6.806;2022-07-22T11:31:58;25.10;19.10
4354;DHT22;11018;51.258;6.806;2022-07-22T11:34:24;25.00;19.40
4354;DHT22;11018;51.258;6.806;2022-07-22T11:36:51;25.00;19.40
4354;DHT22;11018;51.258;6.806;2022-07-22T11:39:24;25.00;18.10
4354;DHT22;11018;51.258;6.806;2022-07-22T11:41:52;25.20;18.90
4354;DHT22;11018;51.258;6.806;2022-07-22T11:44:26;25.50;19.00
4354;DHT22;11018;51.258;6.806;2022-07-22T11:46:53;25.70;18.90
4354;DHT22;11018;51.258;6.806;2022-07-22T11:49:23;25.50;17.40
4354;DHT22;11018;51.258;6.806;2022-07-22T11:51:51;25.30;16.80
4354;DHT22;11018;51.258;6.806;2022-07-22T11:54:17;25.00;17.60
4354;DHT22;11018;51.258;6.806;2022-07-22T11:56:42;24.90;18.90
4354;DHT22;11018;51.258;6.806;2022-07-22T11:59:12;25.10;18.00
4354;DHT22;11018;51.258;6.806;2022-07-22T12:01:39;25.50;18.00
4354;DHT22;11018;51.258;6.806;2022-07-22T12:04:08;25.60;16.40
4354;DHT22;11018;51.258;6.806;2022-07-22T12:06:36;25.60;16.40
4354;DHT22;11018;51.258;6.806;2022-07-22T12:09:06;24.70;18.40
4354;DHT22;11018;51.258;6.806;2022-07-22T12:11:37;24.70;19.10
4354;DHT22;11018;51.258;6.806;2022-07-22T12:14:11;25.00;18.10
4354;DHT22;11018;51.258;6.806;2022-07-22T12:16:38;25.00;18.30
4354;DHT22;11018;51.258;6.806;2022-07-22T12:19:10;25.00;17.50
4354;DHT22;11018;51.258;6.806;2022-07-22T12:21:50;25.00;17.40
4354;DHT22;11018;51.258;6.806;2022-07-22T12:24:29;25.20;17.70
4354;DHT22;11018;51.258;6.806;2022-07-22T12:26:56;25.40;17.20
4354;DHT22;11018;51.258;6.806;2022-07-22T12:29:23;25.50;16.80
4354;DHT22;11018;51.258;6.806;2022-07-22T12:31:56;25.10;16.90
4354;DHT22;11018;51.258;6.806;2022-07-22T12:34:37;25.10;17.50
4354;DHT22;11018;51.258;6.806;2022-07-22T12:37:17;25.10;17.90
4354;DHT22;11018;51.258;6.806;2022-07-22T12:42:22;25.40;15.40
4354;DHT22;11018;51.258;6.806;2022-07-22T12:45:07;25.40;15.50
4354;DHT22;11018;51.258;6.806;2022-07-22T12:50:28;25.30;17.40
4354;DHT22;11018;51.258;6.806;2022-07-22T12:52:56;25.60;16.80
4354;DHT22;11018;51.258;6.806;2022-07-22T12:55:22;25.20;16.40
4354;DHT22;11018;51.258;6.806;2022-07-22T12:57:48;25.10;16.30
4354;DHT22;11018;51.258;6.806;2022-07-22T13:00:19;25.10;16.00
4354;DHT22;11018;51.258;6.806;2022-07-22T13:02:45;25.50;15.90
4354;DHT22;11018;51.258;6.806;2022-07-22T13:05:11;26.00;14.60
4354;DHT22;11018;51.258;6.806;2022-07-22T13:07:36;25.70;15.60
4354;DHT22;11018;51.258;6.806;2022-07-22T13:10:03;25.70;14.50
4354;DHT22;11018;51.258;6.806;2022-07-22T13:12:28;25.60;14.90
4354;DHT22;11018;51.258;6.806;2022-07-22T13:14:54;25.90;14.60
4354;DHT22;11018;51.258;6.806;2022-07-22T13:17:19;25.90;14.50
4354;DHT22;11018;51.258;6.806;2022-07-22T13:19:45;26.30;15.00
4354;DHT22;11018;51.258;6.806;2022-07-22T13:22:10;26.30;15.10
4354;DHT22;11018;51.258;6.806;2022-07-22T13:24:36;26.50;14.90
4354;DHT22;11018;51.258;6.806;2022-07-22T13:27:02;26.80;14.70
4354;DHT22;11018;51.258;6.806;2022-07-22T13:29:28;26.90;14.30
4354;DHT22;11018;51.258;6.806;2022-07-22T13:31:54;26.50;14.40
4354;DHT22;11018;51.258;6.806;2022-07-22T13:34:19;25.70;15.10
4354;DHT22;11018;51.258;6.806;2022-07-22T13:36:45;25.90;15.10
4354;DHT22;11018;51.258;6.806;2022-07-22T13:39:10;26.20;14.50
4354;DHT22;11018;51.258;6.806;2022-07-22T13:41:36;26.00;14.90
4354;DHT22;11018;51.258;6.806;2022-07-22T13:44:02;26.40;14.50
4354;DHT22;11018;51.258;6.806;2022-07-22T13:46:27;26.80;13.20
4354;DHT22;11018;51.258;6.806;2022-07-22T13:48:53;26.90;12.40
4354;DHT22;11018;51.258;6.806;2022-07-22T13:51:19;27.40;13.00
4354;DHT22;11018;51.258;6.806;2022-07-22T13:53:44;28.00;11.50
4354;DHT22;11018;51.258;6.806;2022-07-22T13:56:10;28.40;9.30
4354;DHT22;11018;51.258;6.806;2022-07-22T13:58:38;28.00;11.40
4354;DHT22;11018;51.258;6.806;2022-07-22T14:01:07;28.40;10.80
4354;DHT22;11018;51.258;6.806;2022-07-22T14:03:33;28.30;10.90
4354;DHT22;11018;51.258;6.806;2022-07-22T14:05:58;28.50;10.00
4354;DHT22;11018;51.258;6.806;2022-07-22T14:08:24;28.80;9.90
4354;DHT22;11018;51.258;6.806;2022-07-22T14:10:49;28.80;9.50
4354;DHT22;11018;51.258;6.806;2022-07-22T14:13:15;29.10;9.20
4354;DHT22;11018;51.258;6.806;2022-07-22T14:15:40;29.50;8.40
4354;DHT22;11018;51.258;6.806;2022-07-22T14:18:06;29.60;8.70
4354;DHT22;11018;51.258;6.806;2022-07-22T14:20:33;29.80;7.70
4354;DHT22;11018;51.258;6.806;2022-07-22T14:22:59;28.70;8.70
4354;DHT22;11018;51.258;6.806;2022-07-22T14:25:24;27.80;11.20
4354;DHT22;11018;51.258;6.806;2022-07-22T14:27:50;28.30;10.50
4354;DHT22;11018;51.258;6.806;2022-07-22T14:30:16;28.40;10.30
4354;DHT22;11018;51.258;6.806;2022-07-22T14:32:41;29.10;9.20
4354;DHT22;11018;51.258;6.806;2022-07-22T14:35:07;29.70;8.10
4354;DHT22;11018;51.258;6.806;2022-07-22T14:37:33;30.40;7.80
4354;DHT22;11018;51.258;6.806;2022-07-22T14:39:58;30.80;7.20
4354;DHT22;11018;51.258;6.806;2022-07-22T14:42:24;30.00;6.90
4354;DHT22;11018;51.258;6.806;2022-07-22T14:44:51;29.70;7.10
4354;DHT22;11018;51.258;6.806;2022-07-22T14:47:16;30.10;7.60
4354;DHT22;11018;51.258;6.806;2022-07-22T14:49:42;30.60;6.70
4354;DHT22;11018;51.258;6.806;2022-07-22T14:52:08;30.10;7.40
4354;DHT22;11018;51.258;6.806;2022-07-22T14:54:33;29.30;7.90
4354;DHT22;11018;51.258;6.806;2022-07-22T14:56:59;28.80;8.50
4354;DHT22;11018;51.258;6.806;2022-07-22T14:59:25;29.00;9.40
4354;DHT22;11018;51.258;6.806;2022-07-22T15:01:51;29.30;9.00
4354;DHT22;11018;51.258;6.806;2022-07-22T15:04:17;29.40;8.80
4354;DHT22;11018;51.258;6.806;2022-07-22T15:06:43;29.30;8.70
4354;DHT22;11018;51.258;6.806;2022-07-22T15:09:08;29.00;8.70
4354;DHT22;11018;51.258;6.806;2022-07-22T15:11:34;27.90;10.00
4354;DHT22;11018;51.258;6.806;2022-07-22T15:13:59;27.10;11.70
4354;DHT22;11018;51.258;6.806;2022-07-22T15:16:25;27.10;12.00
4354;DHT22;11018;51.258;6.806;2022-07-22T15:18:50;27.00;12.50
4354;DHT22;11018;51.258;6.806;2022-07-22T15:21:16;27.20;12.30
4354;DHT22;11018;51.258;6.806;2022-07-22T15:23:42;27.00;12.20
4354;DHT22;11018;51.258;6.806;2022-07-22T15:26:07;26.60;12.80
4354;DHT22;11018;51.258;6.806;2022-07-22T15:28:33;26.10;13.00
4354;DHT22;11018;51.258;6.806;2022-07-22T15:30:59;25.70;13.90
4354;DHT22;11018;51.258;6.806;2022-07-22T15:33:25;25.50;14.80
4354;DHT22;11018;51.258;6.806;2022-07-22T15:35:51;25.10;15.50
4354;DHT22;11018;51.258;6.806;2022-07-22T15:38:16;24.80;16.40
4354;DHT22;11018;51.258;6.806;2022-07-22T15:40:42;25.00;15.90
4354;DHT22;11018;51.258;6.806;2022-07-22T15:43:08;25.50;15.00
4354;DHT22;11018;51.258;6.806;2022-07-22T15:45:33;26.10;14.70
4354;DHT22;11018;51.258;6.806;2022-07-22T15:48:00;26.40;13.90
4354;DHT22;11018;51.258;6.806;2022-07-22T15:50:26;26.70;14.00
4354;DHT22;11018;51.258;6.806;2022-07-22T15:52:52;26.80;12.60
4354;DHT22;11018;51.258;6.806;2022-07-22T15:55:19;26.70;13.50
4354;DHT22;11018;51.258;6.806;2022-07-22T15:57:45;27.00;13.10
4354;DHT22;11018;51.258;6.806;2022-07-22T16:00:31;27.50;12.40